sensor_id;sensor_type;location;lat;lon;timestamp;P1;durP1;ratioP1;P2;durP2;ratioP2
31660;SDS011;18267;52.234;7.444;2023-02-18T00:02:01;22.33;;;12.30;;
31660;SDS011;18267;52.234;7.444;2023-02-18T00:04:27;27.45;;;12.40;;
31660;SDS011;18267;52.234;7.444;2023-02-18T00:06:53;27.63;;;12.80;;
31660;SDS011;18267;52.234;7.444;2023-02-18T00:09:18;25.45;;;13.35;;
31660;SDS011;18267;52.234;7.444;2023-02-18T00:11:44;26.70;;;13.05;;
31660;SDS011;18267;52.234;7.444;2023-02-18T00:14:11;25.98;;;13.95;;
31660;SDS011;18267;52.234;7.444;2023-02-18T00:16:37;27.95;;;14.15;;
31660;SDS011;18267;52.234;7.444;2023-02-18T00:19:04;31.73;;;15.20;;
31660;SDS011;18267;52.234;7.444;2023-02-18T00:21:31;32.85;;;15.70;;
31660;SDS011;18267;52.234;7.444;2023-02-18T00:23:59;36.92;;;17.10;;
31660;SDS011;18267;52.234;7.444;2023-02-18T00:26:25;33.53;;;15.75;;
31660;SDS011;18267;52.234;7.444;2023-02-18T00:28:51;34.47;;;16.88;;
31660;SDS011;18267;52.234;7.444;2023-02-18T00:31:19;34.17;;;16.33;;
31660;SDS011;18267;52.234;7.444;2023-02-18T00:33:47;34.17;;;16.33;;
31660;SDS011;18267;52.234;7.444;2023-02-18T00:36:14;30.63;;;17.13;;
31660;SDS011;18267;52.234;7.444;2023-02-18T00:38:45;43.60;;;17.63;;
31660;SDS011;18267;52.234;7.444;2023-02-18T00:41:16;39.17;;;17.88;;
31660;SDS011;18267;52.234;7.444;2023-02-18T00:43:42;29.70;;;15.88;;
31660;SDS011;18267;52.234;7.444;2023-02-18T00:46:08;38.83;;;17.15;;
31660;SDS011;18267;52.234;7.444;2023-02-18T00:48:34;36.28;;;17.40;;
31660;SDS011;18267;52.234;7.444;2023-02-18T00:51:01;36.58;;;17.52;;
31660;SDS011;18267;52.234;7.444;2023-02-18T00:53:27;40.17;;;17.98;;
31660;SDS011;18267;52.234;7.444;2023-02-18T00:55:53;41.28;;;18.60;;
31660;SDS011;18267;52.234;7.444;2023-02-18T00:58:20;48.65;;;18.23;;
31660;SDS011;18267;52.234;7.444;2023-02-18T01:00:46;38.10;;;19.85;;
31660;SDS011;18267;52.234;7.444;2023-02-18T01:03:11;35.75;;;17.38;;
31660;SDS011;18267;52.234;7.444;2023-02-18T01:05:38;36.25;;;17.90;;
31660;SDS011;18267;52.234;7.444;2023-02-18T01:08:04;35.85;;;18.70;;
31660;SDS011;18267;52.234;7.444;2023-02-18T01:10:31;40.67;;;18.00;;
31660;SDS011;18267;52.234;7.444;2023-02-18T01:12:56;40.85;;;18.52;;
31660;SDS011;18267;52.234;7.444;2023-02-18T01:15:22;42.42;;;19.45;;
31660;SDS011;18267;52.234;7.444;2023-02-18T01:17:48;33.50;;;19.08;;
31660;SDS011;18267;52.234;7.444;2023-02-18T01:20:16;38.72;;;18.52;;
31660;SDS011;18267;52.234;7.444;2023-02-18T01:22:42;40.58;;;18.67;;
31660;SDS011;18267;52.234;7.444;2023-02-18T01:25:07;42.10;;;19.42;;
31660;SDS011;18267;52.234;7.444;2023-02-18T01:27:34;41.85;;;20.17;;
31660;SDS011;18267;52.234;7.444;2023-02-18T01:30:00;39.63;;;19.75;;
31660;SDS011;18267;52.234;7.444;2023-02-18T01:32:26;37.50;;;19.02;;
31660;SDS011;18267;52.234;7.444;2023-02-18T01:34:52;39.35;;;20.00;;
31660;SDS011;18267;52.234;7.444;2023-02-18T01:37:18;40.38;;;18.80;;
31660;SDS011;18267;52.234;7.444;2023-02-18T01:39:43;43.28;;;19.23;;
31660;SDS011;18267;52.234;7.444;2023-02-18T01:42:16;49.63;;;19.02;;
31660;SDS011;18267;52.234;7.444;2023-02-18T01:44:47;48.13;;;19.17;;
31660;SDS011;18267;52.234;7.444;2023-02-18T01:47:13;37.60;;;18.15;;
31660;SDS011;18267;52.234;7.444;2023-02-18T01:49:39;44.33;;;19.20;;
31660;SDS011;18267;52.234;7.444;2023-02-18T01:52:16;48.42;;;19.15;;
31660;SDS011;18267;52.234;7.444;2023-02-18T01:54:49;42.60;;;18.35;;
31660;SDS011;18267;52.234;7.444;2023-02-18T01:57:22;41.47;;;19.75;;
31660;SDS011;18267;52.234;7.444;2023-02-18T01:59:51;45.63;;;19.35;;
31660;SDS011;18267;52.234;7.444;2023-02-18T02:02:24;47.60;;;18.63;;
31660;SDS011;18267;52.234;7.444;2023-02-18T02:04:52;45.38;;;16.80;;
31660;SDS011;18267;52.234;7.444;2023-02-18T02:07:19;42.50;;;18.48;;
31660;SDS011;18267;52.234;7.444;2023-02-18T02:09:46;40.95;;;18.38;;
31660;SDS011;18267;52.234;7.444;2023-02-18T02:12:26;41.28;;;17.83;;
31660;SDS011;18267;52.234;7.444;2023-02-18T02:18:20;49.00;;;18.15;;
31660;SDS011;18267;52.234;7.444;2023-02-18T02:21:04;49.80;;;18.42;;
31660;SDS011;18267;52.234;7.444;2023-02-18T02:35:32;46.92;;;19.10;;
31660;SDS011;18267;52.234;7.444;2023-02-18T02:38:06;44.53;;;19.08;;
31660;SDS011;18267;52.234;7.444;2023-02-18T02:40:56;48.50;;;18.42;;
31660;SDS011;18267;52.234;7.444;2023-02-18T02:46:13;49.78;;;19.67;;
31660;SDS011;18267;52.234;7.444;2023-02-18T02:48:53;49.50;;;19.25;;
31660;SDS011;18267;52.234;7.444;2023-02-18T02:51:44;48.67;;;20.15;;
31660;SDS011;18267;52.234;7.444;2023-02-18T02:54:24;43.22;;;18.40;;
31660;SDS011;18267;52.234;7.444;2023-02-18T03:13:01;41.58;;;17.23;;
31660;SDS011;18267;52.234;7.444;2023-02-18T03:16:16;36.90;;;16.85;;
31660;SDS011;18267;52.234;7.444;2023-02-18T03:21:26;39.67;;;16.33;;
31660;SDS011;18267;52.234;7.444;2023-02-18T03:27:14;46.47;;;17.27;;
31660;SDS011;18267;52.234;7.444;2023-02-18T03:29:48;52.38;;;18.23;;
31660;SDS011;18267;52.234;7.444;2023-02-18T03:32:18;42.50;;;17.45;;
31660;SDS011;18267;52.234;7.444;2023-02-18T03:34:48;52.40;;;17.50;;
31660;SDS011;18267;52.234;7.444;2023-02-18T03:37:17;45.45;;;17.95;;
31660;SDS011;18267;52.234;7.444;2023-02-18T03:39:45;42.17;;;17.50;;
31660;SDS011;18267;52.234;7.444;2023-02-18T03:42:14;45.75;;;18.33;;
31660;SDS011;18267;52.234;7.444;2023-02-18T03:44:42;43.20;;;17.73;;
31660;SDS011;18267;52.234;7.444;2023-02-18T03:47:08;45.22;;;17.08;;
31660;SDS011;18267;52.234;7.444;2023-02-18T03:49:33;44.05;;;17.80;;
31660;SDS011;18267;52.234;7.444;2023-02-18T03:51:59;47.13;;;17.13;;
31660;SDS011;18267;52.234;7.444;2023-02-18T03:54:24;47.38;;;17.63;;
31660;SDS011;18267;52.234;7.444;2023-02-18T03:56:50;42.15;;;16.70;;
31660;SDS011;18267;52.234;7.444;2023-02-18T03:59:15;42.70;;;17.42;;
31660;SDS011;18267;52.234;7.444;2023-02-18T04:01:41;43.60;;;17.42;;
31660;SDS011;18267;52.234;7.444;2023-02-18T04:04:06;44.53;;;17.70;;
31660;SDS011;18267;52.234;7.444;2023-02-18T04:06:32;39.00;;;15.52;;
31660;SDS011;18267;52.234;7.444;2023-02-18T04:08:58;42.50;;;16.30;;
31660;SDS011;18267;52.234;7.444;2023-02-18T04:11:23;36.03;;;16.08;;
31660;SDS011;18267;52.234;7.444;2023-02-18T04:13:49;41.55;;;16.48;;
31660;SDS011;18267;52.234;7.444;2023-02-18T04:16:14;40.00;;;14.43;;
31660;SDS011;18267;52.234;7.444;2023-02-18T04:18:40;34.00;;;14.73;;
31660;SDS011;18267;52.234;7.444;2023-02-18T04:21:05;32.63;;;15.25;;
31660;SDS011;18267;52.234;7.444;2023-02-18T04:23:31;36.45;;;14.15;;
31660;SDS011;18267;52.234;7.444;2023-02-18T04:25:56;32.45;;;13.25;;
31660;SDS011;18267;52.234;7.444;2023-02-18T04:28:22;36.25;;;14.55;;
31660;SDS011;18267;52.234;7.444;2023-02-18T04:30:48;26.88;;;11.40;;
31660;SDS011;18267;52.234;7.444;2023-02-18T04:33:13;31.45;;;11.98;;
31660;SDS011;18267;52.234;7.444;2023-02-18T04:35:39;21.38;;;11.57;;
31660;SDS011;18267;52.234;7.444;2023-02-18T04:38:05;27.35;;;11.52;;
31660;SDS011;18267;52.234;7.444;2023-02-18T04:40:31;25.85;;;11.55;;
31660;SDS011;18267;52.234;7.444;2023-02-18T04:42:57;24.50;;;10.98;;
31660;SDS011;18267;52.234;7.444;2023-02-18T04:45:24;23.08;;;9.75;;
31660;SDS011;18267;52.234;7.444;2023-02-18T04:47:51;21.23;;;9.57;;
31660;SDS011;18267;52.234;7.444;2023-02-18T04:50:17;23.17;;;10.13;;
31660;SDS011;18267;52.234;7.444;2023-02-18T04:52:43;21.52;;;10.63;;
31660;SDS011;18267;52.234;7.444;2023-02-18T04:55:08;20.98;;;9.15;;
31660;SDS011;18267;52.234;7.444;2023-02-18T04:57:34;17.20;;;9.00;;
31660;SDS011;18267;52.234;7.444;2023-02-18T05:00:00;19.23;;;9.20;;
31660;SDS011;18267;52.234;7.444;2023-02-18T05:02:25;17.23;;;8.52;;
31660;SDS011;18267;52.234;7.444;2023-02-18T05:04:51;20.08;;;9.23;;
31660;SDS011;18267;52.234;7.444;2023-02-18T05:07:16;17.75;;;8.40;;
31660;SDS011;18267;52.234;7.444;2023-02-18T05:09:42;16.75;;;8.25;;
31660;SDS011;18267;52.234;7.444;2023-02-18T05:12:08;16.15;;;8.38;;
31660;SDS011;18267;52.234;7.444;2023-02-18T05:14:33;18.15;;;8.43;;
31660;SDS011;18267;52.234;7.444;2023-02-18T05:16:59;15.13;;;6.65;;
31660;SDS011;18267;52.234;7.444;2023-02-18T05:19:24;16.77;;;8.25;;
31660;SDS011;18267;52.234;7.444;2023-02-18T05:21:50;13.52;;;6.95;;
31660;SDS011;18267;52.234;7.444;2023-02-18T05:24:15;10.90;;;6.00;;
31660;SDS011;18267;52.234;7.444;2023-02-18T05:26:41;9.98;;;5.72;;
31660;SDS011;18267;52.234;7.444;2023-02-18T05:29:06;13.77;;;6.45;;
31660;SDS011;18267;52.234;7.444;2023-02-18T05:31:32;9.75;;;5.68;;
31660;SDS011;18267;52.234;7.444;2023-02-18T05:33:58;7.95;;;5.03;;
31660;SDS011;18267;52.234;7.444;2023-02-18T05:36:23;10.93;;;5.25;;
31660;SDS011;18267;52.234;7.444;2023-02-18T05:38:49;8.35;;;4.80;;
31660;SDS011;18267;52.234;7.444;2023-02-18T05:41:14;10.18;;;4.90;;
31660;SDS011;18267;52.234;7.444;2023-02-18T05:43:46;8.82;;;4.82;;
31660;SDS011;18267;52.234;7.444;2023-02-18T05:46:31;6.00;;;3.67;;
31660;SDS011;18267;52.234;7.444;2023-02-18T05:48:56;6.63;;;3.70;;
31660;SDS011;18267;52.234;7.444;2023-02-18T05:51:22;8.50;;;3.67;;
31660;SDS011;18267;52.234;7.444;2023-02-18T05:53:47;4.35;;;3.22;;
31660;SDS011;18267;52.234;7.444;2023-02-18T05:56:13;5.88;;;2.88;;
31660;SDS011;18267;52.234;7.444;2023-02-18T05:58:38;5.68;;;2.78;;
31660;SDS011;18267;52.234;7.444;2023-02-18T06:01:04;5.95;;;3.30;;
31660;SDS011;18267;52.234;7.444;2023-02-18T06:03:30;4.82;;;2.42;;
31660;SDS011;18267;52.234;7.444;2023-02-18T06:05:55;2.28;;;1.98;;
31660;SDS011;18267;52.234;7.444;2023-02-18T06:08:21;3.63;;;2.00;;
31660;SDS011;18267;52.234;7.444;2023-02-18T06:10:46;2.28;;;1.70;;
31660;SDS011;18267;52.234;7.444;2023-02-18T06:13:12;2.53;;;1.95;;
31660;SDS011;18267;52.234;7.444;2023-02-18T06:15:37;2.88;;;2.05;;
31660;SDS011;18267;52.234;7.444;2023-02-18T06:18:04;3.65;;;1.92;;
31660;SDS011;18267;52.234;7.444;2023-02-18T06:20:30;4.45;;;1.88;;
31660;SDS011;18267;52.234;7.444;2023-02-18T06:22:56;2.33;;;1.67;;
31660;SDS011;18267;52.234;7.444;2023-02-18T06:25:21;2.90;;;1.65;;
31660;SDS011;18267;52.234;7.444;2023-02-18T06:27:47;2.63;;;1.70;;
31660;SDS011;18267;52.234;7.444;2023-02-18T06:30:12;4.05;;;2.00;;
31660;SDS011;18267;52.234;7.444;2023-02-18T06:32:38;3.08;;;1.80;;
31660;SDS011;18267;52.234;7.444;2023-02-18T06:35:03;2.20;;;1.55;;
31660;SDS011;18267;52.234;7.444;2023-02-18T06:37:29;6.13;;;1.75;;
31660;SDS011;18267;52.234;7.444;2023-02-18T06:39:55;3.35;;;2.03;;
31660;SDS011;18267;52.234;7.444;2023-02-18T06:42:21;2.13;;;1.52;;
31660;SDS011;18267;52.234;7.444;2023-02-18T06:44:47;1.83;;;1.40;;
31660;SDS011;18267;52.234;7.444;2023-02-18T06:47:12;1.75;;;1.35;;
31660;SDS011;18267;52.234;7.444;2023-02-18T06:49:38;2.63;;;1.38;;
31660;SDS011;18267;52.234;7.444;2023-02-18T06:52:03;2.45;;;1.40;;
31660;SDS011;18267;52.234;7.444;2023-02-18T06:54:29;3.22;;;1.40;;
31660;SDS011;18267;52.234;7.444;2023-02-18T06:56:55;2.33;;;1.30;;
31660;SDS011;18267;52.234;7.444;2023-02-18T06:59:21;1.88;;;1.20;;
31660;SDS011;18267;52.234;7.444;2023-02-18T07:01:46;1.85;;;1.40;;
31660;SDS011;18267;52.234;7.444;2023-02-18T07:04:12;3.10;;;1.48;;
31660;SDS011;18267;52.234;7.444;2023-02-18T07:06:37;1.40;;;0.95;;
31660;SDS011;18267;52.234;7.444;2023-02-18T07:09:03;1.10;;;0.90;;
31660;SDS011;18267;52.234;7.444;2023-02-18T07:11:29;2.10;;;0.98;;
31660;SDS011;18267;52.234;7.444;2023-02-18T07:13:55;1.90;;;1.40;;
31660;SDS011;18267;52.234;7.444;2023-02-18T07:16:20;3.55;;;1.25;;
31660;SDS011;18267;52.234;7.444;2023-02-18T07:18:46;2.20;;;1.27;;
31660;SDS011;18267;52.234;7.444;2023-02-18T07:21:11;1.25;;;0.90;;
31660;SDS011;18267;52.234;7.444;2023-02-18T07:23:37;3.58;;;1.00;;
31660;SDS011;18267;52.234;7.444;2023-02-18T07:26:05;1.75;;;1.10;;
31660;SDS011;18267;52.234;7.444;2023-02-18T07:28:32;1.83;;;0.93;;
31660;SDS011;18267;52.234;7.444;2023-02-18T07:30:58;1.35;;;0.98;;
31660;SDS011;18267;52.234;7.444;2023-02-18T07:33:23;1.17;;;0.90;;
31660;SDS011;18267;52.234;7.444;2023-02-18T07:35:53;1.33;;;0.90;;
31660;SDS011;18267;52.234;7.444;2023-02-18T07:38:23;1.15;;;0.80;;
31660;SDS011;18267;52.234;7.444;2023-02-18T07:40:50;0.63;;;0.60;;
31660;SDS011;18267;52.234;7.444;2023-02-18T07:43:16;1.70;;;0.95;;
31660;SDS011;18267;52.234;7.444;2023-02-18T07:45:42;1.27;;;0.90;;
31660;SDS011;18267;52.234;7.444;2023-02-18T07:48:08;1.40;;;1.08;;
31660;SDS011;18267;52.234;7.444;2023-02-18T07:50:34;1.15;;;0.88;;
31660;SDS011;18267;52.234;7.444;2023-02-18T07:53:01;1.05;;;0.85;;
31660;SDS011;18267;52.234;7.444;2023-02-18T07:55:30;2.47;;;1.25;;
31660;SDS011;18267;52.234;7.444;2023-02-18T07:58:24;1.73;;;0.80;;
31660;SDS011;18267;52.234;7.444;2023-02-18T08:00:53;1.33;;;1.00;;
31660;SDS011;18267;52.234;7.444;2023-02-18T08:03:19;1.50;;;1.15;;
31660;SDS011;18267;52.234;7.444;2023-02-18T08:05:47;1.83;;;1.33;;
31660;SDS011;18267;52.234;7.444;2023-02-18T08:08:14;5.82;;;1.88;;
31660;SDS011;18267;52.234;7.444;2023-02-18T08:10:42;3.35;;;2.20;;
31660;SDS011;18267;52.234;7.444;2023-02-18T08:13:08;5.47;;;2.33;;
31660;SDS011;18267;52.234;7.444;2023-02-18T08:15:34;2.08;;;1.77;;
31660;SDS011;18267;52.234;7.444;2023-02-18T08:18:00;2.20;;;1.83;;
31660;SDS011;18267;52.234;7.444;2023-02-18T08:20:27;5.50;;;1.85;;
31660;SDS011;18267;52.234;7.444;2023-02-18T08:22:54;3.75;;;2.53;;
31660;SDS011;18267;52.234;7.444;2023-02-18T08:25:20;1.88;;;1.70;;
31660;SDS011;18267;52.234;7.444;2023-02-18T08:27:46;1.90;;;1.67;;
31660;SDS011;18267;52.234;7.444;2023-02-18T08:30:13;2.38;;;1.60;;
31660;SDS011;18267;52.234;7.444;2023-02-18T08:32:39;1.77;;;1.30;;
31660;SDS011;18267;52.234;7.444;2023-02-18T08:35:07;1.25;;;1.02;;
31660;SDS011;18267;52.234;7.444;2023-02-18T08:37:35;0.95;;;0.80;;
31660;SDS011;18267;52.234;7.444;2023-02-18T08:40:00;4.88;;;0.73;;
31660;SDS011;18267;52.234;7.444;2023-02-18T08:42:26;2.17;;;0.95;;
31660;SDS011;18267;52.234;7.444;2023-02-18T08:44:52;1.40;;;0.90;;
31660;SDS011;18267;52.234;7.444;2023-02-18T08:47:17;1.20;;;1.00;;
31660;SDS011;18267;52.234;7.444;2023-02-18T08:49:43;1.00;;;0.82;;
31660;SDS011;18267;52.234;7.444;2023-02-18T08:52:09;1.65;;;0.88;;
31660;SDS011;18267;52.234;7.444;2023-02-18T08:54:36;1.05;;;0.90;;
31660;SDS011;18267;52.234;7.444;2023-02-18T08:57:02;1.33;;;1.02;;
31660;SDS011;18267;52.234;7.444;2023-02-18T08:59:27;1.55;;;1.10;;
31660;SDS011;18267;52.234;7.444;2023-02-18T09:01:53;2.10;;;1.38;;
31660;SDS011;18267;52.234;7.444;2023-02-18T09:04:18;2.60;;;1.30;;
31660;SDS011;18267;52.234;7.444;2023-02-18T09:06:45;2.35;;;1.90;;
31660;SDS011;18267;52.234;7.444;2023-02-18T09:09:11;2.47;;;1.70;;
31660;SDS011;18267;52.234;7.444;2023-02-18T09:11:39;3.63;;;1.77;;
31660;SDS011;18267;52.234;7.444;2023-02-18T09:14:11;4.15;;;2.00;;
31660;SDS011;18267;52.234;7.444;2023-02-18T09:16:40;2.70;;;1.85;;
31660;SDS011;18267;52.234;7.444;2023-02-18T09:19:06;4.75;;;2.40;;
31660;SDS011;18267;52.234;7.444;2023-02-18T09:21:32;3.42;;;2.05;;
31660;SDS011;18267;52.234;7.444;2023-02-18T09:23:58;2.20;;;1.98;;
31660;SDS011;18267;52.234;7.444;2023-02-18T09:26:24;3.97;;;2.28;;
31660;SDS011;18267;52.234;7.444;2023-02-18T09:28:51;3.53;;;1.75;;
31660;SDS011;18267;52.234;7.444;2023-02-18T09:31:20;2.90;;;2.33;;
31660;SDS011;18267;52.234;7.444;2023-02-18T09:33:54;4.00;;;2.22;;
31660;SDS011;18267;52.234;7.444;2023-02-18T09:36:25;4.20;;;2.67;;
31660;SDS011;18267;52.234;7.444;2023-02-18T09:38:52;3.58;;;2.85;;
31660;SDS011;18267;52.234;7.444;2023-02-18T09:43:53;6.22;;;2.80;;
31660;SDS011;18267;52.234;7.444;2023-02-18T09:46:49;5.55;;;3.05;;
31660;SDS011;18267;52.234;7.444;2023-02-18T09:49:35;5.90;;;3.10;;
31660;SDS011;18267;52.234;7.444;2023-02-18T09:54:37;7.40;;;3.22;;
31660;SDS011;18267;52.234;7.444;2023-02-18T09:57:03;7.55;;;3.05;;
31660;SDS011;18267;52.234;7.444;2023-02-18T09:59:31;10.63;;;3.20;;
31660;SDS011;18267;52.234;7.444;2023-02-18T10:01:57;5.20;;;2.80;;
31660;SDS011;18267;52.234;7.444;2023-02-18T10:04:30;5.75;;;2.78;;
31660;SDS011;18267;52.234;7.444;2023-02-18T10:07:01;6.03;;;2.65;;
31660;SDS011;18267;52.234;7.444;2023-02-18T10:09:29;9.73;;;2.80;;
31660;SDS011;18267;52.234;7.444;2023-02-18T10:12:06;10.85;;;3.20;;
31660;SDS011;18267;52.234;7.444;2023-02-18T10:14:40;8.98;;;2.70;;
31660;SDS011;18267;52.234;7.444;2023-02-18T10:17:09;12.23;;;3.45;;
31660;SDS011;18267;52.234;7.444;2023-02-18T10:19:39;5.90;;;2.72;;
31660;SDS011;18267;52.234;7.444;2023-02-18T10:22:07;5.80;;;3.78;;
31660;SDS011;18267;52.234;7.444;2023-02-18T10:24:37;9.95;;;3.40;;
31660;SDS011;18267;52.234;7.444;2023-02-18T10:27:06;7.55;;;2.50;;
31660;SDS011;18267;52.234;7.444;2023-02-18T10:29:32;3.55;;;2.38;;
31660;SDS011;18267;52.234;7.444;2023-02-18T10:34:41;5.35;;;2.38;;
31660;SDS011;18267;52.234;7.444;2023-02-18T10:37:22;5.90;;;1.85;;
31660;SDS011;18267;52.234;7.444;2023-02-18T10:40:03;6.80;;;2.92;;
31660;SDS011;18267;52.234;7.444;2023-02-18T10:42:46;5.07;;;2.72;;
31660;SDS011;18267;52.234;7.444;2023-02-18T10:48:06;6.35;;;2.60;;
31660;SDS011;18267;52.234;7.444;2023-02-18T10:50:46;6.55;;;3.05;;
31660;SDS011;18267;52.234;7.444;2023-02-18T10:55:43;3.42;;;2.13;;
31660;SDS011;18267;52.234;7.444;2023-02-18T10:58:29;4.10;;;1.73;;
31660;SDS011;18267;52.234;7.444;2023-02-18T11:00:57;3.70;;;1.65;;
31660;SDS011;18267;52.234;7.444;2023-02-18T11:03:42;3.25;;;1.45;;
31660;SDS011;18267;52.234;7.444;2023-02-18T11:08:52;1.80;;;1.05;;
31660;SDS011;18267;52.234;7.444;2023-02-18T11:11:22;2.28;;;1.25;;
31660;SDS011;18267;52.234;7.444;2023-02-18T11:13:54;2.85;;;1.20;;
31660;SDS011;18267;52.234;7.444;2023-02-18T11:16:22;1.50;;;1.08;;
31660;SDS011;18267;52.234;7.444;2023-02-18T11:18:48;1.77;;;0.88;;
31660;SDS011;18267;52.234;7.444;2023-02-18T11:21:30;1.40;;;1.08;;
31660;SDS011;18267;52.234;7.444;2023-02-18T11:24:06;2.50;;;1.10;;
31660;SDS011;18267;52.234;7.444;2023-02-18T11:26:39;2.92;;;1.00;;
31660;SDS011;18267;52.234;7.444;2023-02-18T11:29:06;1.00;;;0.70;;
31660;SDS011;18267;52.234;7.444;2023-02-18T11:31:41;2.97;;;1.30;;
31660;SDS011;18267;52.234;7.444;2023-02-18T11:34:14;1.83;;;1.20;;
31660;SDS011;18267;52.234;7.444;2023-02-18T11:36:45;3.60;;;1.02;;
31660;SDS011;18267;52.234;7.444;2023-02-18T11:42:03;3.25;;;2.00;;
31660;SDS011;18267;52.234;7.444;2023-02-18T11:44:31;1.85;;;1.40;;
31660;SDS011;18267;52.234;7.444;2023-02-18T11:47:01;3.15;;;1.50;;
31660;SDS011;18267;52.234;7.444;2023-02-18T11:49:27;3.50;;;1.50;;
31660;SDS011;18267;52.234;7.444;2023-02-18T11:51:54;2.92;;;1.17;;
31660;SDS011;18267;52.234;7.444;2023-02-18T11:54:30;4.47;;;1.45;;
31660;SDS011;18267;52.234;7.444;2023-02-18T11:57:04;7.25;;;1.70;;
31660;SDS011;18267;52.234;7.444;2023-02-18T11:59:32;5.50;;;1.58;;
31660;SDS011;18267;52.234;7.444;2023-02-18T12:07:25;8.93;;;2.20;;
31660;SDS011;18267;52.234;7.444;2023-02-18T12:15:37;3.53;;;2.08;;
31660;SDS011;18267;52.234;7.444;2023-02-18T12:23:46;9.30;;;2.28;;
31660;SDS011;18267;52.234;7.444;2023-02-18T12:37:39;10.85;;;2.65;;
31660;SDS011;18267;52.234;7.444;2023-02-18T12:45:51;13.20;;;2.95;;
31660;SDS011;18267;52.234;7.444;2023-02-18T12:54:05;5.03;;;2.42;;
31660;SDS011;18267;52.234;7.444;2023-02-18T12:56:53;8.45;;;2.58;;
31660;SDS011;18267;52.234;7.444;2023-02-18T12:59:30;9.75;;;2.70;;
31660;SDS011;18267;52.234;7.444;2023-02-18T13:15:54;6.15;;;2.72;;
31660;SDS011;18267;52.234;7.444;2023-02-18T13:18:28;12.27;;;3.05;;
31660;SDS011;18267;52.234;7.444;2023-02-18T13:20:59;9.48;;;2.90;;
31660;SDS011;18267;52.234;7.444;2023-02-18T13:24:12;12.27;;;3.15;;
31660;SDS011;18267;52.234;7.444;2023-02-18T13:26:22;10.85;;;3.05;;
31660;SDS011;18267;52.234;7.444;2023-02-18T13:31:55;11.25;;;2.95;;
31660;SDS011;18267;52.234;7.444;2023-02-18T13:40:02;9.23;;;2.72;;
31660;SDS011;18267;52.234;7.444;2023-02-18T13:56:01;6.15;;;2.45;;
31660;SDS011;18267;52.234;7.444;2023-02-18T13:59:00;8.10;;;3.30;;
31660;SDS011;18267;52.234;7.444;2023-02-18T14:01:37;11.43;;;3.20;;
31660;SDS011;18267;52.234;7.444;2023-02-18T14:04:32;21.52;;;3.60;;
31660;SDS011;18267;52.234;7.444;2023-02-18T14:10:01;8.23;;;3.03;;
31660;SDS011;18267;52.234;7.444;2023-02-18T14:31:00;10.88;;;2.53;;
31660;SDS011;18267;52.234;7.444;2023-02-18T14:33:31;13.68;;;3.10;;
31660;SDS011;18267;52.234;7.444;2023-02-18T14:36:08;12.23;;;2.83;;
31660;SDS011;18267;52.234;7.444;2023-02-18T14:41:38;7.93;;;2.97;;
31660;SDS011;18267;52.234;7.444;2023-02-18T14:47:54;10.77;;;3.50;;
31660;SDS011;18267;52.234;7.444;2023-02-18T14:50:40;15.20;;;3.10;;
31660;SDS011;18267;52.234;7.444;2023-02-18T14:53:11;9.32;;;2.92;;
31660;SDS011;18267;52.234;7.444;2023-02-18T14:56:04;7.35;;;3.72;;
31660;SDS011;18267;52.234;7.444;2023-02-18T14:58:37;9.60;;;4.22;;
31660;SDS011;18267;52.234;7.444;2023-02-18T15:01:07;7.38;;;3.33;;
31660;SDS011;18267;52.234;7.444;2023-02-18T15:03:52;8.50;;;3.63;;
31660;SDS011;18267;52.234;7.444;2023-02-18T15:08:59;13.70;;;3.70;;
31660;SDS011;18267;52.234;7.444;2023-02-18T15:11:33;13.73;;;4.18;;
31660;SDS011;18267;52.234;7.444;2023-02-18T15:14:14;7.22;;;3.67;;
31660;SDS011;18267;52.234;7.444;2023-02-18T15:16:42;9.73;;;3.75;;
31660;SDS011;18267;52.234;7.444;2023-02-18T15:19:13;11.45;;;4.63;;
31660;SDS011;18267;52.234;7.444;2023-02-18T15:21:43;7.80;;;3.50;;
31660;SDS011;18267;52.234;7.444;2023-02-18T15:26:42;12.85;;;4.13;;
31660;SDS011;18267;52.234;7.444;2023-02-18T15:29:20;11.52;;;3.15;;
31660;SDS011;18267;52.234;7.444;2023-02-18T15:31:47;18.67;;;5.10;;
31660;SDS011;18267;52.234;7.444;2023-02-18T15:34:17;15.98;;;4.70;;
31660;SDS011;18267;52.234;7.444;2023-02-18T15:37:04;17.17;;;4.40;;
31660;SDS011;18267;52.234;7.444;2023-02-18T15:39:31;9.10;;;2.85;;
31660;SDS011;18267;52.234;7.444;2023-02-18T15:42:04;6.20;;;3.50;;
31660;SDS011;18267;52.234;7.444;2023-02-18T15:44:34;10.20;;;3.05;;
31660;SDS011;18267;52.234;7.444;2023-02-18T15:47:02;11.70;;;3.22;;
31660;SDS011;18267;52.234;7.444;2023-02-18T15:49:32;12.55;;;3.08;;
31660;SDS011;18267;52.234;7.444;2023-02-18T15:51:59;9.40;;;2.42;;
31660;SDS011;18267;52.234;7.444;2023-02-18T15:54:26;6.88;;;2.88;;
31660;SDS011;18267;52.234;7.444;2023-02-18T15:56:52;5.88;;;3.25;;
31660;SDS011;18267;52.234;7.444;2023-02-18T15:59:23;10.77;;;3.15;;
31660;SDS011;18267;52.234;7.444;2023-02-18T16:01:50;8.32;;;2.78;;
31660;SDS011;18267;52.234;7.444;2023-02-18T16:04:19;8.52;;;2.80;;
31660;SDS011;18267;52.234;7.444;2023-02-18T16:06:49;11.20;;;3.00;;
31660;SDS011;18267;52.234;7.444;2023-02-18T16:09:24;6.88;;;2.60;;
31660;SDS011;18267;52.234;7.444;2023-02-18T16:11:52;10.02;;;2.63;;
31660;SDS011;18267;52.234;7.444;2023-02-18T16:17:19;10.23;;;2.38;;
31660;SDS011;18267;52.234;7.444;2023-02-18T16:19:49;6.70;;;2.20;;
31660;SDS011;18267;52.234;7.444;2023-02-18T16:22:31;10.20;;;2.45;;
31660;SDS011;18267;52.234;7.444;2023-02-18T16:30:18;6.82;;;2.90;;
31660;SDS011;18267;52.234;7.444;2023-02-18T16:32:52;7.85;;;2.50;;
31660;SDS011;18267;52.234;7.444;2023-02-18T16:35:19;15.18;;;3.42;;
31660;SDS011;18267;52.234;7.444;2023-02-18T16:37:46;11.90;;;2.78;;
31660;SDS011;18267;52.234;7.444;2023-02-18T16:40:21;10.20;;;2.85;;
31660;SDS011;18267;52.234;7.444;2023-02-18T16:42:55;12.48;;;3.08;;
31660;SDS011;18267;52.234;7.444;2023-02-18T16:45:40;12.13;;;3.42;;
31660;SDS011;18267;52.234;7.444;2023-02-18T16:48:21;10.13;;;3.20;;
31660;SDS011;18267;52.234;7.444;2023-02-18T16:50:48;13.60;;;2.47;;
31660;SDS011;18267;52.234;7.444;2023-02-18T16:53:15;11.93;;;3.38;;
31660;SDS011;18267;52.234;7.444;2023-02-18T16:55:41;9.93;;;3.05;;
31660;SDS011;18267;52.234;7.444;2023-02-18T16:58:06;7.03;;;3.25;;
31660;SDS011;18267;52.234;7.444;2023-02-18T17:00:32;8.38;;;2.88;;
31660;SDS011;18267;52.234;7.444;2023-02-18T17:02:58;10.52;;;3.05;;
31660;SDS011;18267;52.234;7.444;2023-02-18T17:05:28;8.73;;;2.45;;
31660;SDS011;18267;52.234;7.444;2023-02-18T17:10:52;5.25;;;1.75;;
31660;SDS011;18267;52.234;7.444;2023-02-18T17:13:25;6.40;;;1.52;;
31660;SDS011;18267;52.234;7.444;2023-02-18T17:15:53;7.57;;;1.88;;
31660;SDS011;18267;52.234;7.444;2023-02-18T17:18:20;13.98;;;2.10;;
31660;SDS011;18267;52.234;7.444;2023-02-18T17:20:48;11.73;;;1.58;;
31660;SDS011;18267;52.234;7.444;2023-02-18T17:23:15;5.85;;;1.48;;
31660;SDS011;18267;52.234;7.444;2023-02-18T17:25:46;8.95;;;1.98;;
31660;SDS011;18267;52.234;7.444;2023-02-18T17:28:15;7.22;;;1.33;;
31660;SDS011;18267;52.234;7.444;2023-02-18T17:30:43;4.75;;;1.38;;
31660;SDS011;18267;52.234;7.444;2023-02-18T17:33:16;6.93;;;1.40;;
31660;SDS011;18267;52.234;7.444;2023-02-18T17:35:43;9.02;;;1.70;;
31660;SDS011;18267;52.234;7.444;2023-02-18T17:38:09;7.20;;;1.40;;
31660;SDS011;18267;52.234;7.444;2023-02-18T17:40:40;9.70;;;2.15;;
31660;SDS011;18267;52.234;7.444;2023-02-18T17:43:06;12.63;;;2.08;;
31660;SDS011;18267;52.234;7.444;2023-02-18T17:45:38;4.30;;;1.67;;
31660;SDS011;18267;52.234;7.444;2023-02-18T17:48:07;6.45;;;1.80;;
31660;SDS011;18267;52.234;7.444;2023-02-18T17:50:33;4.28;;;1.38;;